createdAt,value
2022-10-28T00:00:34.887Z,50.83
2022-10-28T00:03:02.491Z,52.92
2022-10-28T00:05:30.007Z,49.72
2022-10-28T00:07:57.261Z,48.63
2022-10-28T00:10:24.337Z,47.63
2022-10-28T00:12:51.494Z,46.22
2022-10-28T00:15:18.823Z,47.30
2022-10-28T00:17:45.894Z,47.00
2022-10-28T00:20:13.157Z,46.15
2022-10-28T00:22:40.247Z,46.90
2022-10-28T00:25:08.526Z,45.25
2022-10-28T00:27:35.783Z,46.67
2022-10-28T00:30:02.903Z,43.50
2022-10-28T00:32:30.404Z,47.90
2022-10-28T00:34:57.669Z,46.53
2022-10-28T00:37:24.975Z,43.58
2022-10-28T00:39:52.119Z,41.92
2022-10-28T00:42:22.659Z,40.97
2022-10-28T00:44:57.443Z,39.72
2022-10-28T00:47:39.864Z,42.05
2022-10-28T00:50:33.277Z,41.15
2022-10-28T00:53:02.478Z,39.35
2022-10-28T00:55:30.020Z,41.20
2022-10-28T00:57:58.258Z,40.80
2022-10-28T01:00:26.244Z,37.63
2022-10-28T01:02:53.387Z,41.05
2022-10-28T01:05:22.252Z,39.05
2022-10-28T01:07:51.038Z,35.95
2022-10-28T01:10:18.715Z,40.22
2022-10-28T01:12:51.766Z,41.72
2022-10-28T01:15:28.368Z,40.38
2022-10-28T01:18:05.248Z,39.72
2022-10-28T01:20:41.766Z,40.75
2022-10-28T01:23:34.035Z,39.55
2022-10-28T01:26:19.881Z,38.65
2022-10-28T01:29:05.513Z,36.42
2022-10-28T01:31:42.882Z,38.00
2022-10-28T01:34:19.726Z,35.45
2022-10-28T01:36:56.916Z,35.67
2022-10-28T01:39:43.966Z,34.08
2022-10-28T01:42:11.018Z,33.72
2022-10-28T01:44:38.087Z,32.90
2022-10-28T01:47:10.452Z,31.45
2022-10-28T01:49:50.790Z,32.63
2022-10-28T01:52:20.567Z,32.03
2022-10-28T01:54:49.700Z,32.65
2022-10-28T01:57:17.615Z,33.13
2022-10-28T01:59:46.013Z,30.80
2022-10-28T02:02:19.900Z,30.60
2022-10-28T02:04:48.332Z,32.55
2022-10-28T02:07:16.535Z,31.70
2022-10-28T02:10:04.276Z,30.10
2022-10-28T02:12:35.649Z,29.75
2022-10-28T02:17:54.055Z,30.80
2022-10-28T02:20:21.503Z,33.13
2022-10-28T02:22:52.904Z,30.73
2022-10-28T02:25:19.991Z,31.60
2022-10-28T02:30:41.393Z,30.67
2022-10-28T02:33:10.695Z,31.83
2022-10-28T02:36:01.121Z,30.13
2022-10-28T02:38:34.206Z,28.85
2022-10-28T02:41:03.680Z,30.80
2022-10-28T02:43:32.295Z,30.65
2022-10-28T02:46:01.102Z,27.27
2022-10-28T02:48:28.168Z,28.60
2022-10-28T02:51:13.105Z,28.77
2022-10-28T02:53:55.678Z,28.10
2022-10-28T02:56:23.132Z,34.92
2022-10-28T02:58:50.335Z,34.58
2022-10-28T03:01:17.678Z,41.80
2022-10-28T03:03:45.018Z,50.85
2022-10-28T03:06:12.200Z,47.30
2022-10-28T03:08:39.460Z,44.65
2022-10-28T03:11:06.576Z,44.33
2022-10-28T03:13:33.969Z,48.25
2022-10-28T03:16:01.184Z,50.83
2022-10-28T03:18:28.296Z,47.95
2022-10-28T03:20:58.103Z,40.03
2022-10-28T03:23:26.179Z,34.90
2022-10-28T03:25:53.299Z,30.45
2022-10-28T03:28:24.524Z,29.50
2022-10-28T03:30:51.633Z,27.90
2022-10-28T03:33:18.789Z,28.05
2022-10-28T03:35:45.868Z,30.67
2022-10-28T03:38:13.272Z,32.35
2022-10-28T03:40:40.355Z,35.80
2022-10-28T03:43:07.426Z,36.65
2022-10-28T03:45:34.752Z,37.10
2022-10-28T03:48:01.801Z,29.83
2022-10-28T03:50:29.003Z,32.80
2022-10-28T03:52:56.097Z,31.50
2022-10-28T03:55:29.585Z,27.55
2022-10-28T03:57:56.804Z,24.45
2022-10-28T04:00:24.403Z,19.90
2022-10-28T04:02:52.128Z,20.73
2022-10-28T04:05:20.092Z,22.58
2022-10-28T04:07:47.503Z,21.63
2022-10-28T04:10:14.598Z,22.13
2022-10-28T04:12:41.775Z,22.70
2022-10-28T04:15:09.198Z,21.58
2022-10-28T04:17:36.992Z,23.02
2022-10-28T04:20:04.329Z,23.05
2022-10-28T04:22:31.533Z,24.02
2022-10-28T04:25:01.951Z,24.25
2022-10-28T04:29:56.318Z,23.33
2022-10-28T04:32:23.549Z,23.83
2022-10-28T04:34:50.618Z,25.08
2022-10-28T04:37:20.357Z,26.83
2022-10-28T04:39:48.840Z,27.60
2022-10-28T04:42:18.330Z,27.58
2022-10-28T04:44:45.393Z,25.50
2022-10-28T04:47:12.478Z,23.27
2022-10-28T04:49:39.597Z,24.60
2022-10-28T04:52:09.703Z,24.17
2022-10-28T04:54:42.179Z,24.25
2022-10-28T04:57:09.335Z,26.05
2022-10-28T04:59:37.408Z,27.83
2022-10-28T05:02:04.736Z,28.33
2022-10-28T05:04:31.918Z,27.25
2022-10-28T05:06:59.000Z,28.23
2022-10-28T05:09:26.037Z,26.38
2022-10-28T05:11:54.392Z,28.90
2022-10-28T05:14:21.630Z,28.30
2022-10-28T05:16:48.944Z,27.92
2022-10-28T05:19:16.060Z,27.70
2022-10-28T05:21:43.276Z,28.02
2022-10-28T05:24:10.423Z,24.80
2022-10-28T05:26:37.596Z,27.15
2022-10-28T05:29:04.654Z,27.55
2022-10-28T05:31:31.959Z,27.13
2022-10-28T05:33:59.018Z,30.08
2022-10-28T05:36:26.105Z,26.50
2022-10-28T05:38:53.232Z,25.23
2022-10-28T05:41:21.988Z,25.85
2022-10-28T05:43:50.222Z,25.00
2022-10-28T05:46:17.373Z,26.58
2022-10-28T05:48:44.460Z,24.38
2022-10-28T05:51:11.528Z,24.92
2022-10-28T05:53:38.750Z,24.15
2022-10-28T05:56:05.881Z,24.13
2022-10-28T05:58:33.100Z,25.65
2022-10-28T06:01:00.432Z,23.63
2022-10-28T06:03:31.145Z,22.10
2022-10-28T06:06:00.467Z,23.05
2022-10-28T06:08:27.984Z,24.17
2022-10-28T06:10:54.373Z,24.38
2022-10-28T06:13:22.163Z,22.77
2022-10-28T06:15:53.061Z,26.02
2022-10-28T06:18:21.033Z,26.52
2022-10-28T06:20:55.317Z,27.48
2022-10-28T06:23:24.966Z,25.52
2022-10-28T06:28:28.244Z,24.05
2022-10-28T06:31:00.925Z,26.00
2022-10-28T06:33:28.016Z,24.35
2022-10-28T06:35:58.551Z,23.65
2022-10-28T06:38:25.984Z,24.55
2022-10-28T06:40:53.173Z,25.17
2022-10-28T06:43:22.803Z,23.83
2022-10-28T06:45:54.871Z,23.23
2022-10-28T06:48:23.811Z,21.48
2022-10-28T06:50:50.905Z,21.80
2022-10-28T06:53:18.148Z,25.65
2022-10-28T06:55:48.840Z,24.77
2022-10-28T06:58:16.071Z,22.77
2022-10-28T07:00:43.211Z,22.95
2022-10-28T07:03:10.484Z,23.83
2022-10-28T07:05:37.756Z,24.80
2022-10-28T07:08:05.068Z,26.27
2022-10-28T07:10:32.158Z,26.40
2022-10-28T07:12:59.321Z,26.90
2022-10-28T07:15:26.550Z,27.10
2022-10-28T07:17:57.238Z,28.20
2022-10-28T07:20:25.085Z,31.35
2022-10-28T07:22:59.104Z,31.73
2022-10-28T07:25:26.782Z,29.15
2022-10-28T07:27:54.408Z,29.00
2022-10-28T07:30:21.859Z,30.08
2022-10-28T07:32:49.355Z,30.73
2022-10-28T07:35:16.532Z,31.70
2022-10-28T07:37:43.646Z,35.50
2022-10-28T07:40:11.094Z,33.63
2022-10-28T07:42:38.154Z,33.55
2022-10-28T07:45:05.802Z,30.92
2022-10-28T07:47:33.043Z,32.30
2022-10-28T07:50:00.171Z,31.08
2022-10-28T07:52:29.846Z,30.92
2022-10-28T07:54:56.945Z,30.17
2022-10-28T07:57:24.119Z,29.35
2022-10-28T07:59:51.186Z,31.25
2022-10-28T08:02:19.173Z,30.65
2022-10-28T08:04:46.326Z,31.75
2022-10-28T08:07:14.078Z,31.10
2022-10-28T08:09:41.264Z,31.58
2022-10-28T08:12:09.186Z,33.20
2022-10-28T08:14:36.582Z,30.60
2022-10-28T08:17:03.778Z,30.13
2022-10-28T08:19:30.906Z,26.10
2022-10-28T08:21:58.372Z,27.35
2022-10-28T08:24:25.565Z,25.65
2022-10-28T08:26:52.672Z,26.45
2022-10-28T08:29:19.852Z,26.10
2022-10-28T08:31:46.934Z,24.45
2022-10-28T08:34:14.032Z,24.75
2022-10-28T08:36:41.258Z,23.63
2022-10-28T08:39:08.410Z,24.35
2022-10-28T08:41:45.941Z,22.55
2022-10-28T08:44:25.276Z,21.88
2022-10-28T08:47:11.276Z,22.45
2022-10-28T08:49:39.986Z,21.67
2022-10-28T08:52:29.027Z,21.60
2022-10-28T08:54:58.584Z,21.77
2022-10-28T08:57:43.249Z,20.63
2022-10-28T09:00:18.190Z,22.40
2022-10-28T09:03:08.688Z,20.08
2022-10-28T09:08:03.556Z,16.05
2022-10-28T09:10:42.931Z,15.25
2022-10-28T09:13:30.410Z,15.52
2022-10-28T09:16:16.445Z,15.15
2022-10-28T09:18:57.189Z,14.02
2022-10-28T09:21:37.292Z,19.10
2022-10-28T09:24:21.582Z,20.90
2022-10-28T09:26:51.663Z,15.20
2022-10-28T09:29:25.415Z,14.13
2022-10-28T09:31:54.664Z,14.57
2022-10-28T09:34:36.846Z,13.27
2022-10-28T09:37:07.027Z,12.88
2022-10-28T09:39:54.176Z,13.63
2022-10-28T09:42:31.665Z,13.70
2022-10-28T09:45:01.071Z,15.70
2022-10-28T09:47:32.798Z,14.10
2022-10-28T09:50:02.040Z,13.50
2022-10-28T09:52:35.600Z,14.02
2022-10-28T09:55:06.229Z,11.77
2022-10-28T09:57:33.298Z,12.38
2022-10-28T10:00:00.789Z,11.35
2022-10-28T10:02:32.708Z,11.35
2022-10-28T10:05:02.068Z,12.05
2022-10-28T10:07:35.517Z,13.13
2022-10-28T10:10:06.273Z,11.82
2022-10-28T10:12:33.987Z,13.25
2022-10-28T10:15:01.803Z,12.40
2022-10-28T10:17:41.020Z,12.07
2022-10-28T10:20:12.558Z,12.30
2022-10-28T10:22:44.031Z,12.20
2022-10-28T10:25:20.003Z,12.40
2022-10-28T10:27:57.703Z,13.00
2022-10-28T10:30:26.657Z,12.32
2022-10-28T10:32:53.879Z,12.57
2022-10-28T10:35:24.070Z,12.73
2022-10-28T10:37:52.317Z,12.10
2022-10-28T10:40:23.588Z,12.55
2022-10-28T10:43:03.526Z,12.50
2022-10-28T10:45:37.992Z,12.10
2022-10-28T10:48:12.761Z,11.70
2022-10-28T10:50:40.585Z,11.60
2022-10-28T10:53:08.174Z,12.02
2022-10-28T10:55:39.962Z,11.45
2022-10-28T10:58:15.618Z,11.68
2022-10-28T11:00:47.267Z,11.60
2022-10-28T11:03:19.389Z,10.82
2022-10-28T11:06:05.306Z,11.55
2022-10-28T11:08:42.619Z,11.40
2022-10-28T11:11:20.805Z,12.38
2022-10-28T11:13:49.258Z,12.43
2022-10-28T11:16:21.018Z,12.52
2022-10-28T11:18:49.678Z,11.43
2022-10-28T11:21:33.291Z,11.15
2022-10-28T11:24:19.129Z,11.15
2022-10-28T11:26:52.917Z,11.77
2022-10-28T11:29:20.165Z,11.73
2022-10-28T11:32:04.452Z,11.25
2022-10-28T11:34:47.376Z,10.57
2022-10-28T11:37:33.150Z,10.60
2022-10-28T11:40:20.770Z,10.93
2022-10-28T11:43:01.691Z,10.63
2022-10-28T11:45:41.192Z,8.80
2022-10-28T11:48:14.121Z,9.35
2022-10-28T11:50:50.354Z,9.50
2022-10-28T11:53:32.620Z,8.63
2022-10-28T11:55:59.863Z,9.48
2022-10-28T11:58:33.349Z,9.07
2022-10-28T12:01:22.225Z,9.40
2022-10-28T12:03:52.665Z,10.80
2022-10-28T12:06:22.774Z,8.75
2022-10-28T12:09:11.610Z,9.98
2022-10-28T12:11:40.569Z,8.63
2022-10-28T12:14:33.444Z,8.75
2022-10-28T12:17:12.906Z,9.52
2022-10-28T12:19:44.305Z,11.30
2022-10-28T12:22:35.050Z,12.00
2022-10-28T12:25:03.959Z,9.55
2022-10-28T12:27:41.570Z,8.70
2022-10-28T12:30:21.111Z,8.55
2022-10-28T12:32:54.198Z,7.88
2022-10-28T12:35:24.210Z,8.63
2022-10-28T12:38:13.491Z,9.05
2022-10-28T12:40:40.649Z,10.27
2022-10-28T12:43:24.977Z,10.15
2022-10-28T12:45:54.838Z,9.52
2022-10-28T12:48:29.417Z,8.30
2022-10-28T12:51:06.346Z,10.07
2022-10-28T12:53:42.616Z,8.70
2022-10-28T12:56:25.870Z,8.40
2022-10-28T12:59:05.173Z,7.93
2022-10-28T13:01:33.980Z,6.87
2022-10-28T13:04:01.603Z,6.55
2022-10-28T13:06:31.212Z,6.88
2022-10-28T13:09:15.880Z,7.15
2022-10-28T13:11:51.540Z,6.32
2022-10-28T13:14:18.605Z,7.20
2022-10-28T13:17:00.396Z,6.43
2022-10-28T13:19:37.180Z,6.20
2022-10-28T13:22:23.060Z,6.32
2022-10-28T13:25:09.574Z,5.70
2022-10-28T13:30:22.844Z,6.10
2022-10-28T13:33:07.102Z,5.55
2022-10-28T13:35:34.379Z,5.78
2022-10-28T13:38:04.422Z,5.95
2022-10-28T13:40:31.532Z,5.60
2022-10-28T13:42:59.494Z,6.45
2022-10-28T13:45:45.144Z,5.93
2022-10-28T13:48:30.728Z,5.95
2022-10-28T13:51:10.038Z,5.55
2022-10-28T13:53:46.464Z,6.00
2022-10-28T13:56:31.075Z,5.30
2022-10-28T13:59:00.099Z,6.75
2022-10-28T14:01:42.832Z,5.35
2022-10-28T14:04:39.615Z,5.38
2022-10-28T14:07:17.203Z,5.35
2022-10-28T14:09:44.711Z,5.35
2022-10-28T14:12:14.658Z,5.35
2022-10-28T14:14:56.603Z,6.07
2022-10-28T14:17:25.388Z,6.30
2022-10-28T14:19:53.448Z,6.10
2022-10-28T14:22:34.795Z,5.95
2022-10-28T14:25:02.225Z,6.18
2022-10-28T14:27:41.011Z,5.93
2022-10-28T14:30:19.738Z,6.25
2022-10-28T14:32:51.206Z,5.97
2022-10-28T14:35:30.853Z,6.05
2022-10-28T14:38:17.788Z,6.25
2022-10-28T14:41:03.590Z,6.70
2022-10-28T14:43:36.740Z,7.60
2022-10-28T14:46:10.432Z,7.45
2022-10-28T14:48:40.343Z,7.65
2022-10-28T14:51:10.515Z,7.18
2022-10-28T14:56:16.688Z,7.28
2022-10-28T14:58:45.126Z,8.35
2022-10-28T15:01:14.778Z,7.82
2022-10-28T15:03:42.158Z,7.28
2022-10-28T15:09:55.051Z,10.55
2022-10-28T15:12:35.597Z,12.98
2022-10-28T15:15:19.221Z,10.00
2022-10-28T15:18:16.765Z,11.45
2022-10-28T15:21:10.700Z,12.70
2022-10-28T15:26:29.412Z,14.48
2022-10-28T15:29:30.785Z,14.30
2022-10-28T15:32:54.977Z,16.17
2022-10-28T15:36:00.192Z,16.80
2022-10-28T15:38:33.862Z,18.98
2022-10-28T15:41:30.502Z,18.05
2022-10-28T15:53:39.657Z,22.92
2022-10-28T15:56:24.430Z,22.40
2022-10-28T16:00:04.671Z,22.05
2022-10-28T16:02:47.886Z,18.90
2022-10-28T16:09:28.264Z,22.40
2022-10-28T16:13:33.982Z,21.92
2022-10-28T16:16:08.592Z,19.57
2022-10-28T16:18:42.882Z,19.10
2022-10-28T16:21:42.994Z,22.45
2022-10-28T16:25:52.201Z,18.95
2022-10-28T16:31:00.706Z,17.98
2022-10-28T16:33:29.686Z,18.77
2022-10-28T16:36:32.501Z,20.10
2022-10-28T16:39:04.101Z,18.88
2022-10-28T16:48:30.942Z,27.10
2022-10-28T16:51:17.420Z,26.63
2022-10-28T16:53:58.010Z,33.25
2022-10-28T16:56:46.998Z,37.20
2022-10-28T16:59:57.697Z,37.90
2022-10-28T17:02:34.769Z,37.10
2022-10-28T17:05:10.121Z,40.10
2022-10-28T17:10:31.298Z,39.80
2022-10-28T17:16:35.974Z,42.75
2022-10-28T17:19:16.290Z,44.28
2022-10-28T17:21:47.376Z,46.05
2022-10-28T17:24:36.447Z,51.40
2022-10-28T17:27:13.692Z,48.08
2022-10-28T17:30:03.044Z,47.67
2022-10-28T17:32:43.094Z,49.85
2022-10-28T17:35:23.077Z,56.80
2022-10-28T17:38:26.211Z,46.03
2022-10-28T17:40:59.073Z,49.63
2022-10-28T17:44:45.565Z,48.00
2022-10-28T17:46:33.840Z,54.03
2022-10-28T17:54:45.298Z,53.78
2022-10-28T18:06:47.471Z,54.22
2022-10-28T18:09:29.167Z,56.78
2022-10-28T18:12:29.458Z,61.63
2022-10-28T18:15:04.185Z,67.35
2022-10-28T18:17:33.132Z,61.08
2022-10-28T18:23:37.464Z,61.17
2022-10-28T18:26:17.844Z,63.03
2022-10-28T18:32:36.009Z,54.85
2022-10-28T18:38:20.075Z,57.53
2022-10-28T18:41:00.272Z,54.08
2022-10-28T18:43:40.790Z,56.15
2022-10-28T18:48:35.378Z,54.00
2022-10-28T18:54:01.464Z,53.83
2022-10-28T18:56:46.197Z,56.72
2022-10-28T18:59:27.189Z,57.25
2022-10-28T19:02:35.567Z,61.28
2022-10-28T19:04:50.473Z,54.50
2022-10-28T19:10:07.214Z,55.53
2022-10-28T19:12:59.539Z,54.65
2022-10-28T19:15:36.823Z,54.83
2022-10-28T19:18:23.166Z,58.58
2022-10-28T19:21:15.130Z,52.00
2022-10-28T19:24:05.447Z,52.95
2022-10-28T19:26:52.194Z,53.00
2022-10-28T19:35:02.508Z,46.92
2022-10-28T19:37:45.964Z,49.20
2022-10-28T19:43:21.624Z,48.72
2022-10-28T19:46:19.846Z,50.58
2022-10-28T19:49:06.181Z,48.08
2022-10-28T20:00:54.342Z,54.30
2022-10-28T20:04:01.955Z,58.70
2022-10-28T20:12:34.364Z,55.67
2022-10-28T20:15:10.660Z,53.55
2022-10-28T20:21:13.733Z,50.75
2022-10-28T20:26:31.196Z,48.95
2022-10-28T20:29:24.147Z,47.50
2022-10-28T20:32:12.866Z,45.53
2022-10-28T20:35:16.615Z,46.05
2022-10-28T20:47:47.965Z,56.47
2022-10-28T20:50:22.950Z,64.50
2022-10-28T20:53:05.272Z,57.80
2022-10-28T20:55:39.720Z,61.20
2022-10-28T21:01:17.787Z,54.30
2022-10-28T21:04:07.204Z,57.20
2022-10-28T21:06:46.759Z,60.50
2022-10-28T21:09:23.915Z,58.50
2022-10-28T21:12:09.153Z,58.05
2022-10-28T21:15:09.781Z,53.60
2022-10-28T21:20:37.507Z,57.25
2022-10-28T21:23:34.401Z,59.67
2022-10-28T21:26:11.764Z,56.50
2022-10-28T21:29:26.079Z,60.92
2022-10-28T21:32:09.648Z,68.68
2022-10-28T21:35:36.598Z,65.95
2022-10-28T21:38:06.556Z,66.90
2022-10-28T21:40:50.916Z,66.03
2022-10-28T21:43:34.071Z,61.17
2022-10-28T21:46:37.494Z,63.08
2022-10-28T21:49:34.846Z,65.90
2022-10-28T21:52:17.949Z,66.15
2022-10-28T21:55:20.202Z,66.90
2022-10-28T21:58:18.414Z,69.80
2022-10-28T22:01:26.444Z,79.68
2022-10-28T22:04:11.283Z,65.32
2022-10-28T22:06:57.271Z,67.70
2022-10-28T22:09:43.463Z,66.22
2022-10-28T22:12:23.114Z,66.32
2022-10-28T22:15:00.019Z,59.88
2022-10-28T22:23:30.457Z,62.72
2022-10-28T22:32:15.476Z,55.05
2022-10-28T22:34:55.524Z,55.50
2022-10-28T22:37:47.746Z,59.70
2022-10-28T22:40:19.033Z,56.28
2022-10-28T22:43:56.284Z,59.08
2022-10-28T22:46:17.057Z,55.92
2022-10-28T22:48:51.014Z,54.42
2022-10-28T22:51:21.464Z,57.38
2022-10-28T22:57:09.449Z,46.92
2022-10-28T23:02:51.932Z,46.45
2022-10-28T23:05:24.359Z,47.42
2022-10-28T23:11:32.371Z,48.55
2022-10-28T23:14:19.193Z,50.35
2022-10-28T23:19:41.466Z,49.50
2022-10-28T23:22:27.362Z,53.95
2022-10-28T23:24:59.588Z,52.80
2022-10-28T23:27:41.407Z,50.63
2022-10-28T23:30:27.484Z,48.92
2022-10-28T23:33:10.524Z,49.63
2022-10-28T23:36:07.927Z,47.38
2022-10-28T23:38:55.618Z,48.20
2022-10-28T23:41:43.047Z,48.03
2022-10-28T23:44:30.029Z,49.92
2022-10-28T23:50:09.947Z,46.42
2022-10-28T23:53:15.875Z,46.17
2022-10-28T23:56:13.601Z,51.00
2022-10-28T23:58:47.911Z,48.10
